sensor_id;sensor_type;location;lat;lon;timestamp;temperature;humidity
43679;DHT22;29279;50.858;4.392;2022-10-04T00:05:34;14.90;99.90
43679;DHT22;29279;50.858;4.392;2022-10-04T00:10:46;14.80;99.90
43679;DHT22;29279;50.858;4.392;2022-10-04T00:13:22;14.70;99.90
43679;DHT22;29279;50.858;4.392;2022-10-04T00:15:50;14.70;99.90
43679;DHT22;29279;50.858;4.392;2022-10-04T00:18:38;14.60;99.90
43679;DHT22;29279;50.858;4.392;2022-10-04T00:21:06;14.50;99.90
43679;DHT22;29279;50.858;4.392;2022-10-04T00:26:03;14.50;99.90
43679;DHT22;29279;50.858;4.392;2022-10-04T00:33:50;14.50;99.90
43679;DHT22;29279;50.858;4.392;2022-10-04T00:46:44;14.50;99.90
43679;DHT22;29279;50.858;4.392;2022-10-04T00:49:12;14.40;99.90
43679;DHT22;29279;50.858;4.392;2022-10-04T00:52:29;14.30;99.90
43679;DHT22;29279;50.858;4.392;2022-10-04T00:54:47;14.10;99.90
43679;DHT22;29279;50.858;4.392;2022-10-04T00:57:28;14.00;99.90
43679;DHT22;29279;50.858;4.392;2022-10-04T01:00:03;13.90;99.90
43679;DHT22;29279;50.858;4.392;2022-10-04T01:05:25;13.80;99.90
43679;DHT22;29279;50.858;4.392;2022-10-04T01:08:16;13.80;99.90
43679;DHT22;29279;50.858;4.392;2022-10-04T01:13:13;13.80;99.90
43679;DHT22;29279;50.858;4.392;2022-10-04T01:23:47;13.80;99.90
43679;DHT22;29279;50.858;4.392;2022-10-04T01:28:58;13.60;99.90
43679;DHT22;29279;50.858;4.392;2022-10-04T01:31:29;13.60;99.90
43679;DHT22;29279;50.858;4.392;2022-10-04T01:33:56;13.60;99.90
43679;DHT22;29279;50.858;4.392;2022-10-04T01:36:22;13.50;99.90
43679;DHT22;29279;50.858;4.392;2022-10-04T01:38:48;13.50;99.90
43679;DHT22;29279;50.858;4.392;2022-10-04T01:41:20;13.50;99.90
43679;DHT22;29279;50.858;4.392;2022-10-04T01:43:49;13.50;99.90
43679;DHT22;29279;50.858;4.392;2022-10-04T01:46:28;13.50;99.90
43679;DHT22;29279;50.858;4.392;2022-10-04T01:48:57;13.50;99.90
43679;DHT22;29279;50.858;4.392;2022-10-04T01:54:37;13.60;99.90
43679;DHT22;29279;50.858;4.392;2022-10-04T01:59:48;13.70;99.90
43679;DHT22;29279;50.858;4.392;2022-10-04T02:02:32;13.70;99.90
43679;DHT22;29279;50.858;4.392;2022-10-04T02:05:02;13.70;99.90
43679;DHT22;29279;50.858;4.392;2022-10-04T02:07:31;13.70;99.90
43679;DHT22;29279;50.858;4.392;2022-10-04T02:10:05;13.70;99.90
43679;DHT22;29279;50.858;4.392;2022-10-04T02:12:33;13.70;99.90
43679;DHT22;29279;50.858;4.392;2022-10-04T02:15:02;13.70;99.90
43679;DHT22;29279;50.858;4.392;2022-10-04T02:17:33;13.60;99.90
43679;DHT22;29279;50.858;4.392;2022-10-04T02:20:10;13.50;99.90
43679;DHT22;29279;50.858;4.392;2022-10-04T02:22:38;13.50;99.90
43679;DHT22;29279;50.858;4.392;2022-10-04T02:25:05;13.40;99.90
43679;DHT22;29279;50.858;4.392;2022-10-04T02:27:31;13.30;99.90
43679;DHT22;29279;50.858;4.392;2022-10-04T02:30:02;13.20;99.90
43679;DHT22;29279;50.858;4.392;2022-10-04T02:32:30;13.30;99.90
43679;DHT22;29279;50.858;4.392;2022-10-04T02:35:16;13.30;99.90
43679;DHT22;29279;50.858;4.392;2022-10-04T02:37:42;13.10;99.90
43679;DHT22;29279;50.858;4.392;2022-10-04T02:40:12;13.20;99.90
43679;DHT22;29279;50.858;4.392;2022-10-04T02:42:47;13.20;99.90
43679;DHT22;29279;50.858;4.392;2022-10-04T02:47:56;13.10;99.90
43679;DHT22;29279;50.858;4.392;2022-10-04T02:50:34;13.10;99.90
43679;DHT22;29279;50.858;4.392;2022-10-04T02:53:36;13.10;99.90
43679;DHT22;29279;50.858;4.392;2022-10-04T02:56:07;13.20;99.90
43679;DHT22;29279;50.858;4.392;2022-10-04T02:58:38;13.20;99.90
43679;DHT22;29279;50.858;4.392;2022-10-04T03:01:05;13.20;99.90
43679;DHT22;29279;50.858;4.392;2022-10-04T03:03:33;13.20;99.90
43679;DHT22;29279;50.858;4.392;2022-10-04T03:06:15;13.10;99.90
43679;DHT22;29279;50.858;4.392;2022-10-04T03:11:08;13.30;99.90
43679;DHT22;29279;50.858;4.392;2022-10-04T03:13:38;13.20;99.90
43679;DHT22;29279;50.858;4.392;2022-10-04T03:16:06;12.90;99.90
43679;DHT22;29279;50.858;4.392;2022-10-04T03:18:34;12.80;99.90
43679;DHT22;29279;50.858;4.392;2022-10-04T03:21:08;12.60;99.90
43679;DHT22;29279;50.858;4.392;2022-10-04T03:23:37;12.50;99.90
43679;DHT22;29279;50.858;4.392;2022-10-04T03:26:26;12.40;99.90
43679;DHT22;29279;50.858;4.392;2022-10-04T03:28:54;12.40;99.90
43679;DHT22;29279;50.858;4.392;2022-10-04T03:31:21;12.30;99.90
43679;DHT22;29279;50.858;4.392;2022-10-04T03:33:48;12.10;99.90
43679;DHT22;29279;50.858;4.392;2022-10-04T03:36:16;11.90;99.90
43679;DHT22;29279;50.858;4.392;2022-10-04T03:38:45;11.80;99.90
43679;DHT22;29279;50.858;4.392;2022-10-04T03:41:12;11.90;99.90
43679;DHT22;29279;50.858;4.392;2022-10-04T03:43:44;11.90;99.90
43679;DHT22;29279;50.858;4.392;2022-10-04T03:46:10;12.00;99.90
43679;DHT22;29279;50.858;4.392;2022-10-04T03:48:40;11.90;99.90
43679;DHT22;29279;50.858;4.392;2022-10-04T03:51:13;11.80;99.90
43679;DHT22;29279;50.858;4.392;2022-10-04T03:53:43;11.70;99.90
43679;DHT22;29279;50.858;4.392;2022-10-04T03:56:19;11.70;99.90
43679;DHT22;29279;50.858;4.392;2022-10-04T03:58:48;11.60;99.90
43679;DHT22;29279;50.858;4.392;2022-10-04T04:01:31;11.70;99.90
43679;DHT22;29279;50.858;4.392;2022-10-04T04:07:04;11.90;99.90
43679;DHT22;29279;50.858;4.392;2022-10-04T04:09:44;12.10;99.90
43679;DHT22;29279;50.858;4.392;2022-10-04T04:14:48;12.10;99.90
43679;DHT22;29279;50.858;4.392;2022-10-04T04:17:35;12.10;99.90
43679;DHT22;29279;50.858;4.392;2022-10-04T04:20:12;12.00;99.90
43679;DHT22;29279;50.858;4.392;2022-10-04T04:22:40;12.00;99.90
43679;DHT22;29279;50.858;4.392;2022-10-04T04:25:13;11.90;99.90
43679;DHT22;29279;50.858;4.392;2022-10-04T04:27:41;12.00;99.90
43679;DHT22;29279;50.858;4.392;2022-10-04T04:30:15;12.00;99.90
43679;DHT22;29279;50.858;4.392;2022-10-04T04:32:45;11.90;99.90
43679;DHT22;29279;50.858;4.392;2022-10-04T04:35:32;11.90;99.90
43679;DHT22;29279;50.858;4.392;2022-10-04T04:40:34;11.90;99.90
43679;DHT22;29279;50.858;4.392;2022-10-04T04:43:02;11.90;99.90
43679;DHT22;29279;50.858;4.392;2022-10-04T04:45:29;11.90;99.90
43679;DHT22;29279;50.858;4.392;2022-10-04T04:47:58;12.00;99.90
43679;DHT22;29279;50.858;4.392;2022-10-04T04:52:58;12.20;99.90
43679;DHT22;29279;50.858;4.392;2022-10-04T04:55:28;12.00;99.90
43679;DHT22;29279;50.858;4.392;2022-10-04T04:57:56;11.90;99.90
43679;DHT22;29279;50.858;4.392;2022-10-04T05:00:28;12.00;99.90
43679;DHT22;29279;50.858;4.392;2022-10-04T05:02:56;11.90;99.90
43679;DHT22;29279;50.858;4.392;2022-10-04T05:08:25;12.10;99.90
43679;DHT22;29279;50.858;4.392;2022-10-04T05:18:44;11.50;99.90
43679;DHT22;29279;50.858;4.392;2022-10-04T05:21:22;11.40;99.90
43679;DHT22;29279;50.858;4.392;2022-10-04T05:23:50;11.30;99.90
43679;DHT22;29279;50.858;4.392;2022-10-04T05:26:21;11.30;99.90
43679;DHT22;29279;50.858;4.392;2022-10-04T05:28:49;11.30;99.90
43679;DHT22;29279;50.858;4.392;2022-10-04T05:33:51;11.50;99.90
43679;DHT22;29279;50.858;4.392;2022-10-04T05:39:06;11.40;99.90
43679;DHT22;29279;50.858;4.392;2022-10-04T05:44:34;11.30;99.90
43679;DHT22;29279;50.858;4.392;2022-10-04T05:47:01;11.20;99.90
43679;DHT22;29279;50.858;4.392;2022-10-04T05:49:44;11.40;99.90
43679;DHT22;29279;50.858;4.392;2022-10-04T05:52:15;11.50;99.90
43679;DHT22;29279;50.858;4.392;2022-10-04T05:54:41;11.40;99.90
43679;DHT22;29279;50.858;4.392;2022-10-04T06:05:24;11.60;99.90
43679;DHT22;29279;50.858;4.392;2022-10-04T06:07:56;11.80;99.90
43679;DHT22;29279;50.858;4.392;2022-10-04T06:10:36;11.90;99.90
43679;DHT22;29279;50.858;4.392;2022-10-04T06:13:22;11.90;99.90
43679;DHT22;29279;50.858;4.392;2022-10-04T06:17:04;12.00;99.90
43679;DHT22;29279;50.858;4.392;2022-10-04T06:24:24;12.20;99.90
43679;DHT22;29279;50.858;4.392;2022-10-04T06:29:58;12.30;99.90
43679;DHT22;29279;50.858;4.392;2022-10-04T06:35:35;12.40;99.90
43679;DHT22;29279;50.858;4.392;2022-10-04T06:39:03;12.40;99.90
43679;DHT22;29279;50.858;4.392;2022-10-04T06:41:25;12.40;99.90
43679;DHT22;29279;50.858;4.392;2022-10-04T06:55:53;12.30;99.90
43679;DHT22;29279;50.858;4.392;2022-10-04T07:01:29;12.50;99.90
43679;DHT22;29279;50.858;4.392;2022-10-04T07:04:01;12.50;99.90
43679;DHT22;29279;50.858;4.392;2022-10-04T07:06:54;12.50;99.90
43679;DHT22;29279;50.858;4.392;2022-10-04T07:09:41;12.50;99.90
43679;DHT22;29279;50.858;4.392;2022-10-04T07:12:11;12.70;99.90
43679;DHT22;29279;50.858;4.392;2022-10-04T07:14:47;12.70;99.90
43679;DHT22;29279;50.858;4.392;2022-10-04T07:17:23;12.70;99.90
43679;DHT22;29279;50.858;4.392;2022-10-04T07:19:52;12.70;99.90
43679;DHT22;29279;50.858;4.392;2022-10-04T07:22:46;12.80;99.90
43679;DHT22;29279;50.858;4.392;2022-10-04T07:25:15;12.70;99.90
43679;DHT22;29279;50.858;4.392;2022-10-04T07:27:51;12.80;99.90
43679;DHT22;29279;50.858;4.392;2022-10-04T07:30:44;13.00;99.90
43679;DHT22;29279;50.858;4.392;2022-10-04T07:33:19;13.20;99.90
43679;DHT22;29279;50.858;4.392;2022-10-04T07:36:14;13.40;99.90
43679;DHT22;29279;50.858;4.392;2022-10-04T07:38:59;13.60;99.90
43679;DHT22;29279;50.858;4.392;2022-10-04T07:41:38;13.60;99.90
43679;DHT22;29279;50.858;4.392;2022-10-04T07:46:54;13.60;99.90
43679;DHT22;29279;50.858;4.392;2022-10-04T07:49:21;13.70;99.90
43679;DHT22;29279;50.858;4.392;2022-10-04T07:58:13;14.10;99.90
43679;DHT22;29279;50.858;4.392;2022-10-04T08:01:00;14.20;99.90
43679;DHT22;29279;50.858;4.392;2022-10-04T08:03:29;14.30;99.90
43679;DHT22;29279;50.858;4.392;2022-10-04T08:06:20;14.50;99.90
43679;DHT22;29279;50.858;4.392;2022-10-04T08:12:17;15.10;99.90
43679;DHT22;29279;50.858;4.392;2022-10-04T08:14:55;15.40;99.90
43679;DHT22;29279;50.858;4.392;2022-10-04T08:17:47;15.50;99.90
43679;DHT22;29279;50.858;4.392;2022-10-04T08:20:37;15.50;99.90
43679;DHT22;29279;50.858;4.392;2022-10-04T08:31:35;16.00;99.90
43679;DHT22;29279;50.858;4.392;2022-10-04T08:39:58;18.60;99.90
43679;DHT22;29279;50.858;4.392;2022-10-04T09:16:07;21.90;98.80
43679;DHT22;29279;50.858;4.392;2022-10-04T09:19:10;21.80;98.70
43679;DHT22;29279;50.858;4.392;2022-10-04T09:40:35;25.00;93.20
43679;DHT22;29279;50.858;4.392;2022-10-04T09:43:23;25.20;93.00
43679;DHT22;29279;50.858;4.392;2022-10-04T09:48:58;25.90;92.20
43679;DHT22;29279;50.858;4.392;2022-10-04T09:57:07;26.60;90.20
43679;DHT22;29279;50.858;4.392;2022-10-04T10:20:38;26.80;86.70
43679;DHT22;29279;50.858;4.392;2022-10-04T10:25:55;27.10;85.20
43679;DHT22;29279;50.858;4.392;2022-10-04T11:07:43;26.40;83.50
43679;DHT22;29279;50.858;4.392;2022-10-04T11:15:48;26.50;84.40
43679;DHT22;29279;50.858;4.392;2022-10-04T11:51:52;30.30;75.40
43679;DHT22;29279;50.858;4.392;2022-10-04T12:00:19;27.80;77.60
43679;DHT22;29279;50.858;4.392;2022-10-04T12:02:55;28.40;77.50
43679;DHT22;29279;50.858;4.392;2022-10-04T12:08:37;29.00;77.20
43679;DHT22;29279;50.858;4.392;2022-10-04T12:14:14;29.50;77.40
43679;DHT22;29279;50.858;4.392;2022-10-04T12:28:05;30.30;75.70
43679;DHT22;29279;50.858;4.392;2022-10-04T12:33:20;30.50;75.20
43679;DHT22;29279;50.858;4.392;2022-10-04T12:36:21;31.00;74.50
43679;DHT22;29279;50.858;4.392;2022-10-04T12:42:10;30.70;74.40
43679;DHT22;29279;50.858;4.392;2022-10-04T12:44:53;30.60;74.30
43679;DHT22;29279;50.858;4.392;2022-10-04T12:47:41;30.30;74.80
43679;DHT22;29279;50.858;4.392;2022-10-04T12:52:53;29.00;75.90
43679;DHT22;29279;50.858;4.392;2022-10-04T13:02:00;29.40;75.80
43679;DHT22;29279;50.858;4.392;2022-10-04T13:04:04;29.30;75.50
43679;DHT22;29279;50.858;4.392;2022-10-04T13:06:48;29.30;76.00
43679;DHT22;29279;50.858;4.392;2022-10-04T13:12:03;29.40;76.30
43679;DHT22;29279;50.858;4.392;2022-10-04T13:14:47;29.60;75.90
43679;DHT22;29279;50.858;4.392;2022-10-04T13:22:46;28.10;77.20
43679;DHT22;29279;50.858;4.392;2022-10-04T13:25:36;28.00;77.90
43679;DHT22;29279;50.858;4.392;2022-10-04T13:28:29;28.70;77.60
43679;DHT22;29279;50.858;4.392;2022-10-04T13:31:09;29.00;76.30
43679;DHT22;29279;50.858;4.392;2022-10-04T13:47:42;28.00;78.00
43679;DHT22;29279;50.858;4.392;2022-10-04T14:13:57;27.50;78.60
43679;DHT22;29279;50.858;4.392;2022-10-04T14:30:56;26.30;79.00
43679;DHT22;29279;50.858;4.392;2022-10-04T14:33:54;26.10;78.90
43679;DHT22;29279;50.858;4.392;2022-10-04T14:45:01;25.30;81.30
43679;DHT22;29279;50.858;4.392;2022-10-04T14:53:14;24.10;84.90
43679;DHT22;29279;50.858;4.392;2022-10-04T15:06:44;22.30;90.50
43679;DHT22;29279;50.858;4.392;2022-10-04T15:25:50;21.00;92.40
43679;DHT22;29279;50.858;4.392;2022-10-04T15:28:40;20.90;92.80
43679;DHT22;29279;50.858;4.392;2022-10-04T15:34:01;20.40;93.70
43679;DHT22;29279;50.858;4.392;2022-10-04T15:40:06;20.40;93.90
43679;DHT22;29279;50.858;4.392;2022-10-04T15:42:38;20.40;94.30
43679;DHT22;29279;50.858;4.392;2022-10-04T15:45:36;20.50;94.10
43679;DHT22;29279;50.858;4.392;2022-10-04T15:50:55;20.40;94.50
43679;DHT22;29279;50.858;4.392;2022-10-04T15:56:31;20.30;95.00
43679;DHT22;29279;50.858;4.392;2022-10-04T16:02:20;20.00;95.70
43679;DHT22;29279;50.858;4.392;2022-10-04T16:10:57;19.90;96.10
43679;DHT22;29279;50.858;4.392;2022-10-04T16:24:36;19.10;98.10
43679;DHT22;29279;50.858;4.392;2022-10-04T16:27:13;19.10;98.20
43679;DHT22;29279;50.858;4.392;2022-10-04T16:30:04;19.10;98.50
43679;DHT22;29279;50.858;4.392;2022-10-04T16:32:39;18.90;98.80
43679;DHT22;29279;50.858;4.392;2022-10-04T16:38:20;18.50;99.90
43679;DHT22;29279;50.858;4.392;2022-10-04T16:53:56;18.50;99.90
43679;DHT22;29279;50.858;4.392;2022-10-04T17:08:37;18.10;99.90
43679;DHT22;29279;50.858;4.392;2022-10-04T17:13:51;17.90;99.90
43679;DHT22;29279;50.858;4.392;2022-10-04T17:16:37;17.90;99.90
43679;DHT22;29279;50.858;4.392;2022-10-04T17:19:30;17.90;99.90
43679;DHT22;29279;50.858;4.392;2022-10-04T17:25:32;17.80;99.90
43679;DHT22;29279;50.858;4.392;2022-10-04T17:31:08;17.70;99.90
43679;DHT22;29279;50.858;4.392;2022-10-04T17:33:45;17.70;99.90
43679;DHT22;29279;50.858;4.392;2022-10-04T17:36:27;17.50;99.90
43679;DHT22;29279;50.858;4.392;2022-10-04T17:39:10;17.40;99.90
43679;DHT22;29279;50.858;4.392;2022-10-04T17:42:02;17.30;99.90
43679;DHT22;29279;50.858;4.392;2022-10-04T17:44:34;17.30;99.90
43679;DHT22;29279;50.858;4.392;2022-10-04T17:47:20;17.30;99.90
43679;DHT22;29279;50.858;4.392;2022-10-04T17:50:04;17.40;99.90
43679;DHT22;29279;50.858;4.392;2022-10-04T17:52:55;17.50;99.90
43679;DHT22;29279;50.858;4.392;2022-10-04T17:55:50;17.50;99.90
43679;DHT22;29279;50.858;4.392;2022-10-04T17:58:37;17.50;99.90
43679;DHT22;29279;50.858;4.392;2022-10-04T18:03:50;17.50;99.90
43679;DHT22;29279;50.858;4.392;2022-10-04T18:17:06;17.60;99.90
43679;DHT22;29279;50.858;4.392;2022-10-04T18:22:14;17.20;99.90
43679;DHT22;29279;50.858;4.392;2022-10-04T18:25:01;17.10;99.90
43679;DHT22;29279;50.858;4.392;2022-10-04T18:27:28;17.10;99.90
43679;DHT22;29279;50.858;4.392;2022-10-04T18:30:11;17.10;99.90
43679;DHT22;29279;50.858;4.392;2022-10-04T18:32:38;17.10;99.90
43679;DHT22;29279;50.858;4.392;2022-10-04T18:35:29;17.20;99.90
43679;DHT22;29279;50.858;4.392;2022-10-04T18:40:42;17.20;99.90
43679;DHT22;29279;50.858;4.392;2022-10-04T18:43:44;17.20;99.90
43679;DHT22;29279;50.858;4.392;2022-10-04T18:46:21;17.10;99.90
43679;DHT22;29279;50.858;4.392;2022-10-04T18:51:32;17.00;99.90
43679;DHT22;29279;50.858;4.392;2022-10-04T18:54:17;17.00;99.90
43679;DHT22;29279;50.858;4.392;2022-10-04T18:56:59;17.10;99.90
43679;DHT22;29279;50.858;4.392;2022-10-04T19:02:52;17.10;99.90
43679;DHT22;29279;50.858;4.392;2022-10-04T19:05:28;17.00;99.90
43679;DHT22;29279;50.858;4.392;2022-10-04T19:11:24;17.00;99.90
43679;DHT22;29279;50.858;4.392;2022-10-04T19:14:03;17.00;99.90
43679;DHT22;29279;50.858;4.392;2022-10-04T19:16:46;17.00;99.90
43679;DHT22;29279;50.858;4.392;2022-10-04T19:19:26;17.00;99.90
43679;DHT22;29279;50.858;4.392;2022-10-04T19:40:35;17.10;99.90
43679;DHT22;29279;50.858;4.392;2022-10-04T19:48:52;17.00;99.90
43679;DHT22;29279;50.858;4.392;2022-10-04T19:51:28;17.00;99.90
43679;DHT22;29279;50.858;4.392;2022-10-04T19:54:06;16.90;99.90
43679;DHT22;29279;50.858;4.392;2022-10-04T19:56:34;17.00;99.90
43679;DHT22;29279;50.858;4.392;2022-10-04T19:59:06;16.90;99.90
43679;DHT22;29279;50.858;4.392;2022-10-04T20:01:35;16.90;99.90
43679;DHT22;29279;50.858;4.392;2022-10-04T20:04:06;16.80;99.90
43679;DHT22;29279;50.858;4.392;2022-10-04T20:06:56;16.80;99.90
43679;DHT22;29279;50.858;4.392;2022-10-04T20:15:13;16.90;99.90
43679;DHT22;29279;50.858;4.392;2022-10-04T20:17:39;16.90;99.90
43679;DHT22;29279;50.858;4.392;2022-10-04T20:20:05;16.90;99.90
43679;DHT22;29279;50.858;4.392;2022-10-04T20:22:52;16.90;99.90
43679;DHT22;29279;50.858;4.392;2022-10-04T20:30:58;17.10;99.90
43679;DHT22;29279;50.858;4.392;2022-10-04T20:38:52;17.10;99.90
43679;DHT22;29279;50.858;4.392;2022-10-04T20:43:57;17.20;99.90
43679;DHT22;29279;50.858;4.392;2022-10-04T20:46:26;17.20;99.90
43679;DHT22;29279;50.858;4.392;2022-10-04T20:48:53;17.20;99.90
43679;DHT22;29279;50.858;4.392;2022-10-04T20:51:20;17.30;99.90
43679;DHT22;29279;50.858;4.392;2022-10-04T20:53:47;17.40;99.90
43679;DHT22;29279;50.858;4.392;2022-10-04T20:56:19;17.30;99.90
43679;DHT22;29279;50.858;4.392;2022-10-04T20:59:00;17.40;99.90
43679;DHT22;29279;50.858;4.392;2022-10-04T21:01:27;17.20;99.90
43679;DHT22;29279;50.858;4.392;2022-10-04T21:07:05;17.30;99.90
43679;DHT22;29279;50.858;4.392;2022-10-04T21:09:40;17.30;99.90
43679;DHT22;29279;50.858;4.392;2022-10-04T21:15:26;17.20;99.90
43679;DHT22;29279;50.858;4.392;2022-10-04T21:18:01;17.20;99.90
43679;DHT22;29279;50.858;4.392;2022-10-04T21:20:46;17.10;99.90
43679;DHT22;29279;50.858;4.392;2022-10-04T21:23:25;17.30;99.90
43679;DHT22;29279;50.858;4.392;2022-10-04T21:28:44;17.20;99.90
43679;DHT22;29279;50.858;4.392;2022-10-04T21:31:10;17.20;99.90
43679;DHT22;29279;50.858;4.392;2022-10-04T21:33:36;17.20;99.90
43679;DHT22;29279;50.858;4.392;2022-10-04T21:36:03;17.20;99.90
43679;DHT22;29279;50.858;4.392;2022-10-04T21:38:29;17.20;99.90
43679;DHT22;29279;50.858;4.392;2022-10-04T21:40:55;17.20;99.90
43679;DHT22;29279;50.858;4.392;2022-10-04T21:43:22;17.30;99.90
43679;DHT22;29279;50.858;4.392;2022-10-04T21:45:48;17.40;99.90
43679;DHT22;29279;50.858;4.392;2022-10-04T21:48:14;17.50;99.90
43679;DHT22;29279;50.858;4.392;2022-10-04T21:50:40;17.40;99.90
43679;DHT22;29279;50.858;4.392;2022-10-04T21:53:06;17.40;99.90
43679;DHT22;29279;50.858;4.392;2022-10-04T21:55:32;17.30;99.90
43679;DHT22;29279;50.858;4.392;2022-10-04T21:57:57;17.30;99.90
43679;DHT22;29279;50.858;4.392;2022-10-04T22:00:23;17.30;99.90
43679;DHT22;29279;50.858;4.392;2022-10-04T22:02:49;17.40;99.90
43679;DHT22;29279;50.858;4.392;2022-10-04T22:05:15;17.40;99.90
43679;DHT22;29279;50.858;4.392;2022-10-04T22:07:41;17.30;99.90
43679;DHT22;29279;50.858;4.392;2022-10-04T22:10:07;17.40;99.90
43679;DHT22;29279;50.858;4.392;2022-10-04T22:12:33;17.50;99.90
43679;DHT22;29279;50.858;4.392;2022-10-04T22:14:58;17.40;99.90
43679;DHT22;29279;50.858;4.392;2022-10-04T22:17:24;17.40;99.90
43679;DHT22;29279;50.858;4.392;2022-10-04T22:19:50;17.30;99.90
43679;DHT22;29279;50.858;4.392;2022-10-04T22:22:17;17.30;99.90
43679;DHT22;29279;50.858;4.392;2022-10-04T22:24:43;17.20;99.90
43679;DHT22;29279;50.858;4.392;2022-10-04T22:27:14;17.20;99.90
43679;DHT22;29279;50.858;4.392;2022-10-04T22:29:40;17.30;99.90
43679;DHT22;29279;50.858;4.392;2022-10-04T22:32:32;17.30;99.90
43679;DHT22;29279;50.858;4.392;2022-10-04T22:35:00;17.30;99.90
43679;DHT22;29279;50.858;4.392;2022-10-04T22:37:30;17.30;99.90
43679;DHT22;29279;50.858;4.392;2022-10-04T22:39:57;17.30;99.90
43679;DHT22;29279;50.858;4.392;2022-10-04T22:42:27;17.30;99.90
43679;DHT22;29279;50.858;4.392;2022-10-04T22:44:54;17.30;99.90
43679;DHT22;29279;50.858;4.392;2022-10-04T22:47:20;17.20;99.90
43679;DHT22;29279;50.858;4.392;2022-10-04T22:49:49;17.20;99.90
43679;DHT22;29279;50.858;4.392;2022-10-04T22:52:21;17.10;99.90
43679;DHT22;29279;50.858;4.392;2022-10-04T22:54:57;17.00;99.90
43679;DHT22;29279;50.858;4.392;2022-10-04T22:57:25;17.10;99.90
43679;DHT22;29279;50.858;4.392;2022-10-04T22:59:51;17.10;99.90
43679;DHT22;29279;50.858;4.392;2022-10-04T23:02:23;17.10;99.90
43679;DHT22;29279;50.858;4.392;2022-10-04T23:04:55;17.20;99.90
43679;DHT22;29279;50.858;4.392;2022-10-04T23:07:22;17.10;99.90
43679;DHT22;29279;50.858;4.392;2022-10-04T23:09:48;17.30;99.90
43679;DHT22;29279;50.858;4.392;2022-10-04T23:12:14;17.20;99.90
43679;DHT22;29279;50.858;4.392;2022-10-04T23:14:40;17.20;99.90
43679;DHT22;29279;50.858;4.392;2022-10-04T23:19:45;17.40;99.90
43679;DHT22;29279;50.858;4.392;2022-10-04T23:22:15;17.30;99.90
43679;DHT22;29279;50.858;4.392;2022-10-04T23:24:41;17.30;99.90
43679;DHT22;29279;50.858;4.392;2022-10-04T23:27:14;17.30;99.90
43679;DHT22;29279;50.858;4.392;2022-10-04T23:29:40;17.30;99.90
43679;DHT22;29279;50.858;4.392;2022-10-04T23:32:15;17.30;99.90
43679;DHT22;29279;50.858;4.392;2022-10-04T23:34:48;17.20;99.90
43679;DHT22;29279;50.858;4.392;2022-10-04T23:37:26;17.20;99.90
43679;DHT22;29279;50.858;4.392;2022-10-04T23:39:52;17.10;99.90
43679;DHT22;29279;50.858;4.392;2022-10-04T23:42:24;17.00;99.90
43679;DHT22;29279;50.858;4.392;2022-10-04T23:44:55;17.00;99.90
43679;DHT22;29279;50.858;4.392;2022-10-04T23:47:22;17.10;99.90
43679;DHT22;29279;50.858;4.392;2022-10-04T23:49:51;17.00;99.90
43679;DHT22;29279;50.858;4.392;2022-10-04T23:52:24;17.00;99.90
43679;DHT22;29279;50.858;4.392;2022-10-04T23:54:51;17.00;99.90
43679;DHT22;29279;50.858;4.392;2022-10-04T23:57:26;17.10;99.90
43679;DHT22;29279;50.858;4.392;2022-10-04T23:59:52;17.10;99.90
